Time;durP1;ratioP1;P1;durP2;ratioP2;P2;SDS_P1;SDS_P2;PMS_P1;PMS_P2;Temp;Humidity;BMP_temperature;BMP_pressure;BME280_temperature;BME280_humidity;BME280_pressure;Samples;Min_cycle;Max_cycle;Signal;HPM_P1;HPM_P2
2022/07/18 00:01:35;;;;;;;2.80;1.48;;;;;;;;;;5029820;28;20017;-57
2022/07/18 00:04:01;;;;;;;3.95;1.80;;;;;;;;;;5030857;28;20029;-57
2022/07/18 00:06:27;;;;;;;5.15;2.30;;;;;;;;;;5031126;28;20032;-56
2022/07/18 00:08:53;;;;;;;4.97;1.80;;;;;;;;;;5027281;28;20519;-57
2022/07/18 00:11:19;;;;;;;2.45;1.80;;;;;;;;;;5022134;28;20474;-57
2022/07/18 00:13:45;;;;;;;3.92;1.60;;;;;;;;;;5030718;28;20476;-57
2022/07/18 00:16:11;;;;;;;3.33;1.85;;;;;;;;;;5030322;28;20116;-57
2022/07/18 00:18:37;;;;;;;4.15;1.95;;;;;;;;;;5030531;28;20378;-57
2022/07/18 00:21:03;;;;;;;3.45;1.75;;;;;;;;;;5018650;28;20037;-56
2022/07/18 00:23:29;;;;;;;4.25;1.58;;;;;;;;;;5030951;28;20451;-56
2022/07/18 00:25:54;;;;;;;3.72;1.73;;;;;;;;;;5030613;28;20163;-57
2022/07/18 00:28:20;;;;;;;2.50;1.70;;;;;;;;;;5030991;28;20025;-57
2022/07/18 00:30:46;;;;;;;3.40;1.60;;;;;;;;;;5029781;28;20052;-56
2022/07/18 00:33:12;;;;;;;2.10;1.42;;;;;;;;;;5030684;28;20034;-57
2022/07/18 00:35:38;;;;;;;4.05;1.88;;;;;;;;;;5023814;28;20433;-57
2022/07/18 00:38:05;;;;;;;2.67;1.58;;;;;;;;;;5029599;28;20065;-57
2022/07/18 00:40:31;;;;;;;2.40;1.48;;;;;;;;;;5021171;28;20174;-56
2022/07/18 00:42:58;;;;;;;4.25;1.83;;;;;;;;;;5026376;28;20030;-58
2022/07/18 00:45:24;;;;;;;4.25;2.20;;;;;;;;;;5028792;28;20037;-56
2022/07/18 00:47:51;;;;;;;5.00;1.60;;;;;;;;;;5021563;28;20487;-57
2022/07/18 00:50:17;;;;;;;3.33;1.58;;;;;;;;;;5020737;28;20022;-56
2022/07/18 00:52:43;;;;;;;4.97;1.55;;;;;;;;;;5022112;28;20481;-57
2022/07/18 00:55:09;;;;;;;4.55;1.70;;;;;;;;;;5030736;28;20029;-57
2022/07/18 00:57:37;;;;;;;4.10;1.83;;;;;;;;;;5024931;28;20056;-57
2022/07/18 01:02:49;;;;;;;4.00;1.65;;;;;;;;;;5030030;28;20041;-60
2022/07/18 01:05:15;;;;;;;2.00;1.55;;;;;;;;;;5026035;28;20025;-60
2022/07/18 01:07:41;;;;;;;3.72;1.60;;;;;;;;;;5030736;28;20022;-60
2022/07/18 01:10:07;;;;;;;3.28;1.60;;;;;;;;;;5024857;28;20026;-59
2022/07/18 01:12:33;;;;;;;3.42;1.30;;;;;;;;;;5030127;28;20029;-60
2022/07/18 01:14:59;;;;;;;2.90;1.65;;;;;;;;;;5021325;28;20056;-59
2022/07/18 01:17:26;;;;;;;3.05;1.70;;;;;;;;;;5027254;28;20029;-60
2022/07/18 01:19:52;;;;;;;1.85;1.50;;;;;;;;;;5026607;28;20030;-59
2022/07/18 01:22:19;;;;;;;3.15;1.48;;;;;;;;;;5025440;28;20363;-59
2022/07/18 01:24:46;;;;;;;3.25;1.73;;;;;;;;;;5018985;28;20433;-60
2022/07/18 01:27:16;;;;;;;4.53;1.40;;;;;;;;;;5025484;28;20524;-59
2022/07/18 01:29:42;;;;;;;4.93;1.55;;;;;;;;;;5029134;28;20109;-59
2022/07/18 01:32:09;;;;;;;6.53;1.90;;;;;;;;;;5033697;28;20029;-59
2022/07/18 01:34:35;;;;;;;2.95;1.70;;;;;;;;;;5033720;28;20038;-58
2022/07/18 01:37:02;;;;;;;4.20;1.95;;;;;;;;;;5030265;28;20494;-59
2022/07/18 01:39:28;;;;;;;3.90;1.85;;;;;;;;;;5020390;28;20029;-60
2022/07/18 01:41:57;;;;;;;5.20;1.92;;;;;;;;;;5036178;28;20043;-59
2022/07/18 01:44:24;;;;;;;3.05;1.60;;;;;;;;;;5031489;28;20071;-60
2022/07/18 01:46:50;;;;;;;2.65;1.50;;;;;;;;;;5026840;28;20025;-59
2022/07/18 01:49:16;;;;;;;5.45;2.20;;;;;;;;;;5021625;28;20037;-58
2022/07/18 01:51:45;;;;;;;4.22;2.15;;;;;;;;;;5021024;28;20049;-59
2022/07/18 01:54:11;;;;;;;3.13;2.00;;;;;;;;;;5024174;28;20034;-60
2022/07/18 01:56:37;;;;;;;5.38;1.98;;;;;;;;;;5033056;28;20045;-59
2022/07/18 01:59:03;;;;;;;2.15;1.60;;;;;;;;;;5025958;28;20022;-59
2022/07/18 02:01:29;;;;;;;4.28;1.77;;;;;;;;;;5027856;28;20026;-59
2022/07/18 02:03:55;;;;;;;3.63;2.08;;;;;;;;;;5020733;28;20024;-59
2022/07/18 02:06:21;;;;;;;3.17;1.92;;;;;;;;;;5016362;28;20017;-59
2022/07/18 02:08:48;;;;;;;3.53;1.73;;;;;;;;;;5032489;28;20033;-60
2022/07/18 02:11:14;;;;;;;2.50;1.73;;;;;;;;;;5018216;28;20064;-59
2022/07/18 02:13:40;;;;;;;3.60;1.73;;;;;;;;;;5032795;28;20084;-60
2022/07/18 02:16:06;;;;;;;1.77;1.50;;;;;;;;;;5026568;28;20114;-59
2022/07/18 02:18:32;;;;;;;3.63;1.92;;;;;;;;;;5022159;28;20037;-60
2022/07/18 02:21:01;;;;;;;4.28;1.58;;;;;;;;;;5028847;28;20499;-59
2022/07/18 02:23:27;;;;;;;4.55;1.58;;;;;;;;;;5031769;28;20046;-59
2022/07/18 02:25:53;;;;;;;3.47;1.77;;;;;;;;;;5032921;28;20148;-59
2022/07/18 02:28:19;;;;;;;3.15;2.13;;;;;;;;;;5023388;28;20112;-59
2022/07/18 02:30:45;;;;;;;3.30;1.55;;;;;;;;;;5030762;28;20101;-60
2022/07/18 02:33:11;;;;;;;3.30;2.03;;;;;;;;;;5032646;28;20041;-60
2022/07/18 02:35:37;;;;;;;4.47;1.95;;;;;;;;;;5032335;28;20037;-59
2022/07/18 02:38:03;;;;;;;6.03;1.88;;;;;;;;;;5023654;28;20034;-58
2022/07/18 02:40:29;;;;;;;5.75;1.50;;;;;;;;;;5027419;28;20515;-60
2022/07/18 02:42:55;;;;;;;3.30;1.95;;;;;;;;;;5042396;28;20033;-60
2022/07/18 02:45:21;;;;;;;3.85;1.48;;;;;;;;;;5031859;28;20030;-60
2022/07/18 02:47:47;;;;;;;4.32;1.73;;;;;;;;;;5032220;28;20025;-59
2022/07/18 02:50:13;;;;;;;3.45;1.40;;;;;;;;;;5025216;28;20436;-59
2022/07/18 02:52:40;;;;;;;2.15;1.52;;;;;;;;;;5024218;28;20037;-59
2022/07/18 02:55:06;;;;;;;2.30;1.70;;;;;;;;;;5022831;28;20034;-59
2022/07/18 02:57:32;;;;;;;3.55;1.67;;;;;;;;;;5029493;28;20441;-58
2022/07/18 02:59:58;;;;;;;4.50;2.03;;;;;;;;;;5031789;28;20044;-57
2022/07/18 03:02:24;;;;;;;3.15;1.65;;;;;;;;;;5026068;28;20037;-59
2022/07/18 03:04:50;;;;;;;4.32;1.92;;;;;;;;;;5022109;28;20034;-59
2022/07/18 03:07:16;;;;;;;3.58;1.70;;;;;;;;;;5032015;28;20049;-59
2022/07/18 03:09:42;;;;;;;4.75;2.33;;;;;;;;;;5026282;28;20529;-60
2022/07/18 03:12:08;;;;;;;1.65;1.55;;;;;;;;;;5031605;28;20109;-59
2022/07/18 03:14:34;;;;;;;4.45;2.22;;;;;;;;;;5031658;28;20108;-58
2022/07/18 03:17:00;;;;;;;8.25;2.85;;;;;;;;;;5025831;28;21638;-59
2022/07/18 03:19:26;;;;;;;4.10;2.15;;;;;;;;;;5030073;28;20036;-58
2022/07/18 03:21:52;;;;;;;6.75;2.72;;;;;;;;;;5030724;28;20037;-59
2022/07/18 03:24:18;;;;;;;4.53;2.42;;;;;;;;;;5023536;28;20068;-60
2022/07/18 03:26:44;;;;;;;3.65;2.30;;;;;;;;;;5031801;28;20029;-59
2022/07/18 03:29:11;;;;;;;6.60;2.17;;;;;;;;;;5031058;28;20030;-59
2022/07/18 03:31:37;;;;;;;3.30;2.10;;;;;;;;;;5031134;28;20033;-59
2022/07/18 03:34:04;;;;;;;3.03;2.03;;;;;;;;;;5022296;28;20493;-59
2022/07/18 03:36:30;;;;;;;5.30;2.22;;;;;;;;;;5031341;28;20568;-59
2022/07/18 03:38:56;;;;;;;4.50;2.30;;;;;;;;;;5028741;28;20029;-59
2022/07/18 03:41:22;;;;;;;6.07;2.00;;;;;;;;;;5040185;28;20508;-59
2022/07/18 03:43:48;;;;;;;4.20;2.25;;;;;;;;;;5031828;28;20029;-59
2022/07/18 03:46:14;;;;;;;5.30;2.42;;;;;;;;;;5020601;28;20120;-60
2022/07/18 03:48:40;;;;;;;2.35;1.55;;;;;;;;;;5027825;28;20419;-58
2022/07/18 03:51:06;;;;;;;2.50;1.95;;;;;;;;;;5020973;28;20040;-59
2022/07/18 03:53:32;;;;;;;3.72;2.30;;;;;;;;;;5026618;28;20029;-59
2022/07/18 03:55:58;;;;;;;3.53;2.38;;;;;;;;;;5024083;28;20045;-59
2022/07/18 03:58:24;;;;;;;4.10;2.70;;;;;;;;;;5031373;28;20105;-59
2022/07/18 04:00:50;;;;;;;2.90;2.22;;;;;;;;;;5024651;28;20168;-59
2022/07/18 04:03:17;;;;;;;4.32;2.15;;;;;;;;;;5024318;28;20040;-59
2022/07/18 04:05:43;;;;;;;7.10;2.90;;;;;;;;;;5030214;28;20038;-59
2022/07/18 04:08:09;;;;;;;4.60;1.98;;;;;;;;;;5031306;28;20175;-59
2022/07/18 04:10:39;;;;;;;5.32;2.22;;;;;;;;;;5021565;28;20029;-59
2022/07/18 04:13:05;;;;;;;5.70;2.38;;;;;;;;;;5018619;28;20061;-59
2022/07/18 04:15:31;;;;;;;4.38;1.70;;;;;;;;;;5028797;28;20033;-60
2022/07/18 04:17:57;;;;;;;5.20;2.33;;;;;;;;;;5024145;28;20470;-58
2022/07/18 04:20:23;;;;;;;6.75;2.42;;;;;;;;;;5030384;28;20025;-60
2022/07/18 04:22:50;;;;;;;4.03;2.28;;;;;;;;;;5030952;28;20037;-59
2022/07/18 04:25:17;;;;;;;2.95;1.77;;;;;;;;;;5020493;28;20029;-59
2022/07/18 04:27:43;;;;;;;4.72;3.10;;;;;;;;;;5022176;28;20036;-59
2022/07/18 04:30:09;;;;;;;9.18;2.60;;;;;;;;;;5028685;28;20036;-59
2022/07/18 04:32:35;;;;;;;3.55;2.50;;;;;;;;;;5026107;28;20444;-57
2022/07/18 04:35:01;;;;;;;3.35;1.90;;;;;;;;;;5023927;28;20516;-58
2022/07/18 04:37:30;;;;;;;9.85;2.53;;;;;;;;;;5030673;28;20513;-59
2022/07/18 04:39:56;;;;;;;4.18;2.38;;;;;;;;;;5029027;28;20064;-59
2022/07/18 04:42:22;;;;;;;3.15;2.20;;;;;;;;;;5030773;28;20115;-59
2022/07/18 04:44:48;;;;;;;6.00;2.30;;;;;;;;;;5025977;28;20041;-58
2022/07/18 04:47:14;;;;;;;4.22;2.10;;;;;;;;;;5030251;28;20036;-59
2022/07/18 04:49:40;;;;;;;2.83;1.90;;;;;;;;;;5031466;28;20028;-59
2022/07/18 04:52:06;;;;;;;4.15;2.45;;;;;;;;;;5022064;28;20032;-59
2022/07/18 04:54:32;;;;;;;6.40;2.65;;;;;;;;;;5029818;28;20060;-59
2022/07/18 04:56:58;;;;;;;8.70;2.65;;;;;;;;;;5024350;28;20053;-59
2022/07/18 04:59:24;;;;;;;5.60;2.30;;;;;;;;;;5032509;28;20037;-59
2022/07/18 05:01:50;;;;;;;5.68;2.50;;;;;;;;;;5033474;28;20557;-59
2022/07/18 05:04:16;;;;;;;5.05;2.38;;;;;;;;;;5029992;28;20033;-59
2022/07/18 05:06:41;;;;;;;3.55;2.10;;;;;;;;;;5034551;28;20026;-60
2022/07/18 05:09:07;;;;;;;4.22;2.63;;;;;;;;;;5033912;28;20030;-58
2022/07/18 05:11:33;;;;;;;5.75;1.90;;;;;;;;;;5024145;28;20470;-60
2022/07/18 05:13:59;;;;;;;3.75;2.10;;;;;;;;;;5028439;28;20551;-58
2022/07/18 05:16:25;;;;;;;3.15;2.35;;;;;;;;;;5025566;28;20386;-60
2022/07/18 05:18:51;;;;;;;3.33;1.90;;;;;;;;;;5031401;28;20409;-60
2022/07/18 05:21:17;;;;;;;5.85;2.40;;;;;;;;;;5029727;28;20103;-59
2022/07/18 05:23:45;;;;;;;5.93;1.98;;;;;;;;;;5027270;28;20116;-60
2022/07/18 05:26:11;;;;;;;3.10;2.00;;;;;;;;;;5033168;28;20812;-59
2022/07/18 05:28:37;;;;;;;3.65;2.13;;;;;;;;;;5033015;28;20056;-59
2022/07/18 05:31:03;;;;;;;3.58;1.85;;;;;;;;;;5032172;28;20485;-59
2022/07/18 05:33:29;;;;;;;7.97;2.25;;;;;;;;;;5033885;28;20547;-60
2022/07/18 05:35:55;;;;;;;3.70;2.10;;;;;;;;;;5033917;28;20037;-60
2022/07/18 05:38:21;;;;;;;4.00;2.10;;;;;;;;;;5033664;28;20389;-59
2022/07/18 05:40:47;;;;;;;6.05;2.08;;;;;;;;;;5032642;28;20104;-59
2022/07/18 05:43:13;;;;;;;3.60;1.77;;;;;;;;;;5032443;28;20579;-60
2022/07/18 05:45:39;;;;;;;2.97;1.50;;;;;;;;;;5030876;28;20091;-59
2022/07/18 05:48:05;;;;;;;4.28;1.92;;;;;;;;;;5026214;28;20496;-58
2022/07/18 05:50:31;;;;;;;2.67;1.60;;;;;;;;;;5027156;28;20076;-59
2022/07/18 05:52:57;;;;;;;3.67;1.95;;;;;;;;;;5025442;28;20481;-59
2022/07/18 05:55:23;;;;;;;3.58;1.60;;;;;;;;;;5040813;28;20499;-59
2022/07/18 05:57:49;;;;;;;3.30;2.05;;;;;;;;;;5032685;28;20104;-59
2022/07/18 06:00:16;;;;;;;6.57;2.13;;;;;;;;;;5045996;28;20499;-59
2022/07/18 06:02:42;;;;;;;4.03;2.03;;;;;;;;;;5032921;28;20252;-57
2022/07/18 06:05:08;;;;;;;6.88;2.17;;;;;;;;;;5032797;28;20099;-59
2022/07/18 06:07:35;;;;;;;5.13;2.13;;;;;;;;;;5033183;28;20026;-59
2022/07/18 06:10:01;;;;;;;5.03;2.78;;;;;;;;;;5030689;28;20026;-60
2022/07/18 06:12:30;;;;;;;3.35;1.88;;;;;;;;;;5032976;28;20067;-60
2022/07/18 06:14:56;;;;;;;4.55;1.63;;;;;;;;;;5031737;28;20528;-60
2022/07/18 06:17:22;;;;;;;5.78;1.92;;;;;;;;;;5031613;28;20535;-60
2022/07/18 06:19:48;;;;;;;3.85;1.85;;;;;;;;;;5032254;28;20033;-60
2022/07/18 06:22:14;;;;;;;2.40;1.30;;;;;;;;;;5033000;28;20025;-60
2022/07/18 06:24:40;;;;;;;7.72;1.83;;;;;;;;;;5019544;28;20022;-60
2022/07/18 06:27:06;;;;;;;3.08;1.33;;;;;;;;;;5031379;28;20037;-60
2022/07/18 06:29:33;;;;;;;3.45;1.70;;;;;;;;;;5032721;28;20087;-59
2022/07/18 06:31:59;;;;;;;7.75;1.90;;;;;;;;;;5027151;28;20489;-59
2022/07/18 06:34:25;;;;;;;4.80;1.60;;;;;;;;;;5039164;28;20026;-59
2022/07/18 06:36:51;;;;;;;5.00;1.60;;;;;;;;;;5037805;28;20369;-59
2022/07/18 06:39:18;;;;;;;2.85;1.38;;;;;;;;;;5031804;28;20026;-60
2022/07/18 06:41:44;;;;;;;2.85;1.73;;;;;;;;;;5030102;28;20022;-59
2022/07/18 06:44:10;;;;;;;5.18;1.50;;;;;;;;;;5032289;28;20480;-58
2022/07/18 06:46:36;;;;;;;3.35;1.45;;;;;;;;;;5032335;28;20053;-59
2022/07/18 06:49:03;;;;;;;3.65;1.10;;;;;;;;;;5027815;28;20068;-59
2022/07/18 06:51:29;;;;;;;3.33;1.20;;;;;;;;;;5029342;28;20026;-59
2022/07/18 06:53:55;;;;;;;3.63;1.70;;;;;;;;;;5021129;28;20457;-59
2022/07/18 06:56:21;;;;;;;4.20;1.30;;;;;;;;;;5027569;28;20084;-59
2022/07/18 06:58:49;;;;;;;4.05;1.35;;;;;;;;;;5031586;28;20859;-59
2022/07/18 07:01:16;;;;;;;2.25;1.23;;;;;;;;;;5030911;28;20041;-59
2022/07/18 07:03:42;;;;;;;2.67;1.20;;;;;;;;;;5028058;28;20082;-59
2022/07/18 07:06:08;;;;;;;3.78;1.00;;;;;;;;;;5022487;28;20021;-60
2022/07/18 07:08:34;;;;;;;3.60;1.08;;;;;;;;;;5027648;28;20478;-60
2022/07/18 07:11:00;;;;;;;2.92;0.93;;;;;;;;;;5031253;28;20029;-59
2022/07/18 07:13:26;;;;;;;3.33;1.40;;;;;;;;;;5032044;28;20657;-60
2022/07/18 07:15:53;;;;;;;11.82;2.00;;;;;;;;;;5031495;28;20489;-59
2022/07/18 07:18:19;;;;;;;3.00;1.13;;;;;;;;;;5032594;28;20112;-59
2022/07/18 07:20:45;;;;;;;5.53;1.08;;;;;;;;;;5028630;28;20096;-59
2022/07/18 07:23:11;;;;;;;4.43;0.98;;;;;;;;;;5029893;28;20053;-59
2022/07/18 07:25:37;;;;;;;3.47;1.08;;;;;;;;;;5037091;28;20068;-59
2022/07/18 07:28:04;;;;;;;2.28;1.00;;;;;;;;;;5033368;28;20036;-59
2022/07/18 07:30:30;;;;;;;4.78;1.15;;;;;;;;;;5026176;28;20432;-59
2022/07/18 07:32:56;;;;;;;5.30;1.20;;;;;;;;;;5030879;28;20021;-57
2022/07/18 07:35:23;;;;;;;4.82;1.45;;;;;;;;;;5029855;28;20469;-59
2022/07/18 07:37:50;;;;;;;2.45;0.95;;;;;;;;;;5030265;28;20053;-59
2022/07/18 07:40:17;;;;;;;3.70;0.82;;;;;;;;;;5023490;28;20078;-59
2022/07/18 07:42:43;;;;;;;2.60;1.23;;;;;;;;;;5023423;28;20053;-60
2022/07/18 07:45:10;;;;;;;3.10;1.15;;;;;;;;;;5024159;28;20025;-60
2022/07/18 07:47:36;;;;;;;3.33;0.93;;;;;;;;;;5023159;28;20488;-60
2022/07/18 07:50:03;;;;;;;2.70;1.10;;;;;;;;;;5026003;28;20034;-60
2022/07/18 07:52:29;;;;;;;3.80;0.98;;;;;;;;;;5026016;28;20389;-60
2022/07/18 07:54:56;;;;;;;3.70;0.90;;;;;;;;;;5025362;28;20485;-59
2022/07/18 07:57:22;;;;;;;2.05;0.90;;;;;;;;;;5032734;28;20084;-60
2022/07/18 07:59:48;;;;;;;6.70;1.00;;;;;;;;;;5032153;28;20048;-59
2022/07/18 08:02:15;;;;;;;2.47;1.05;;;;;;;;;;5030701;28;20068;-59
2022/07/18 08:04:41;;;;;;;2.42;0.88;;;;;;;;;;5024527;28;20049;-60
2022/07/18 08:07:07;;;;;;;3.85;1.23;;;;;;;;;;5023854;28;20021;-61
2022/07/18 08:09:33;;;;;;;10.50;1.95;;;;;;;;;;5022774;28;20489;-60
2022/07/18 08:11:59;;;;;;;6.43;1.00;;;;;;;;;;5024906;28;20083;-60
2022/07/18 08:14:25;;;;;;;2.88;1.00;;;;;;;;;;5028689;28;20481;-60
2022/07/18 08:16:51;;;;;;;1.85;0.98;;;;;;;;;;5029460;28;20022;-59
2022/07/18 08:19:17;;;;;;;5.13;1.30;;;;;;;;;;5017222;28;20029;-60
2022/07/18 08:21:43;;;;;;;2.30;0.88;;;;;;;;;;5028664;28;20075;-59
2022/07/18 08:24:09;;;;;;;6.20;1.70;;;;;;;;;;5030653;28;20032;-59
2022/07/18 08:26:38;;;;;;;2.83;1.05;;;;;;;;;;5030920;28;20029;-60
2022/07/18 08:29:04;;;;;;;3.47;1.08;;;;;;;;;;5030825;28;20113;-59
2022/07/18 08:31:30;;;;;;;3.22;1.10;;;;;;;;;;5018945;28;20398;-59
2022/07/18 08:33:56;;;;;;;6.53;1.52;;;;;;;;;;5029759;28;20033;-60
2022/07/18 08:36:22;;;;;;;3.08;1.10;;;;;;;;;;5034821;28;20026;-59
2022/07/18 08:38:48;;;;;;;2.50;1.25;;;;;;;;;;5035102;28;20036;-60
2022/07/18 08:41:16;;;;;;;4.07;1.65;;;;;;;;;;5028816;28;20472;-60
2022/07/18 08:43:43;;;;;;;3.40;1.58;;;;;;;;;;5023838;28;20045;-60
2022/07/18 08:46:09;;;;;;;5.00;1.50;;;;;;;;;;5024521;28;20037;-60
2022/07/18 08:48:35;;;;;;;6.07;1.52;;;;;;;;;;5025598;28;20095;-59
2022/07/18 08:51:01;;;;;;;3.45;1.65;;;;;;;;;;5034105;28;20412;-59
2022/07/18 08:53:27;;;;;;;4.80;1.30;;;;;;;;;;5034619;28;20528;-60
2022/07/18 08:55:54;;;;;;;3.08;1.35;;;;;;;;;;5034502;28;20120;-60
2022/07/18 08:58:20;;;;;;;4.82;1.20;;;;;;;;;;5034698;28;20419;-60
2022/07/18 09:00:46;;;;;;;3.78;1.58;;;;;;;;;;5032643;28;20037;-59
2022/07/18 09:03:13;;;;;;;4.20;2.17;;;;;;;;;;5034153;28;20025;-59
2022/07/18 09:05:42;;;;;;;2.40;1.30;;;;;;;;;;5032968;28;20120;-59
2022/07/18 09:08:22;;;;;;;4.10;1.70;;;;;;;;;;5034288;28;20026;-60
2022/07/18 09:10:49;;;;;;;2.97;1.48;;;;;;;;;;5034008;28;20022;-59
2022/07/18 09:13:15;;;;;;;2.63;1.30;;;;;;;;;;5034449;28;20433;-60
2022/07/18 09:16:00;;;;;;;4.72;1.55;;;;;;;;;;5032560;28;20549;-60
2022/07/18 09:18:26;;;;;;;5.63;1.92;;;;;;;;;;5028363;28;20021;-60
2022/07/18 09:20:59;;;;;;;2.85;1.50;;;;;;;;;;5033867;28;20029;-59
2022/07/18 09:23:32;;;;;;;14.05;2.83;;;;;;;;;;5034214;28;20489;-60
2022/07/18 09:25:59;;;;;;;4.53;2.60;;;;;;;;;;5032511;28;20033;-60
2022/07/18 09:28:26;;;;;;;5.70;2.67;;;;;;;;;;5031004;28;20527;-60
2022/07/18 09:30:52;;;;;;;4.70;2.63;;;;;;;;;;5030490;28;20022;-60
2022/07/18 09:33:20;;;;;;;7.80;3.28;;;;;;;;;;5032697;28;20025;-59
2022/07/18 09:35:47;;;;;;;5.40;2.53;;;;;;;;;;5030547;28;20108;-59
2022/07/18 09:38:15;;;;;;;4.47;2.95;;;;;;;;;;5024627;28;20030;-60
2022/07/18 09:40:42;;;;;;;5.22;2.70;;;;;;;;;;5039772;28;20385;-60
2022/07/18 09:43:13;;;;;;;3.83;2.58;;;;;;;;;;5019656;28;20025;-59
2022/07/18 09:45:43;;;;;;;6.05;2.97;;;;;;;;;;5030721;28;20500;-60
2022/07/18 09:48:11;;;;;;;5.03;2.80;;;;;;;;;;5023292;28;20045;-59
2022/07/18 09:50:40;;;;;;;10.20;3.60;;;;;;;;;;5035375;28;20052;-59
2022/07/18 09:53:14;;;;;;;5.38;3.00;;;;;;;;;;5017687;28;20059;-59
2022/07/18 09:55:44;;;;;;;9.23;2.80;;;;;;;;;;5031626;28;20084;-60
2022/07/18 09:58:10;;;;;;;6.20;3.08;;;;;;;;;;5031587;28;20469;-59
2022/07/18 10:00:38;;;;;;;5.80;3.28;;;;;;;;;;5032166;28;20122;-60
2022/07/18 10:03:05;;;;;;;5.70;3.30;;;;;;;;;;5028026;28;20043;-60
2022/07/18 10:05:33;;;;;;;4.88;2.90;;;;;;;;;;5032859;28;20500;-60
2022/07/18 10:07:59;;;;;;;5.78;3.10;;;;;;;;;;5033232;28;20022;-60
2022/07/18 10:10:26;;;;;;;8.73;3.15;;;;;;;;;;5031295;28;20022;-60
2022/07/18 10:12:54;;;;;;;6.97;3.05;;;;;;;;;;5031531;28;20033;-60
2022/07/18 10:15:24;;;;;;;5.25;2.72;;;;;;;;;;5034002;28;20029;-60
2022/07/18 10:17:51;;;;;;;7.30;3.38;;;;;;;;;;5026335;28;20478;-58
2022/07/18 10:20:17;;;;;;;7.15;3.53;;;;;;;;;;5031743;28;20592;-60
2022/07/18 10:22:43;;;;;;;8.43;3.30;;;;;;;;;;5030044;28;20038;-60
2022/07/18 10:25:11;;;;;;;9.02;3.05;;;;;;;;;;5032340;28;20029;-59
2022/07/18 10:28:02;;;;;;;6.30;3.10;;;;;;;;;;5032250;28;20033;-59
2022/07/18 10:30:32;;;;;;;5.95;3.53;;;;;;;;;;5022622;28;20022;-59
2022/07/18 10:32:58;;;;;;;5.55;3.38;;;;;;;;;;5020542;28;20062;-58
2022/07/18 10:35:43;;;;;;;7.05;3.28;;;;;;;;;;5028113;28;20036;-59
2022/07/18 10:38:21;;;;;;;5.50;3.28;;;;;;;;;;5026595;28;20033;-59
2022/07/18 10:41:06;;;;;;;5.13;3.15;;;;;;;;;;5033345;28;20030;-60
2022/07/18 10:43:33;;;;;;;6.18;3.60;;;;;;;;;;5027482;28;20465;-60
2022/07/18 10:46:00;;;;;;;8.73;3.35;;;;;;;;;;5035424;28;20477;-60
2022/07/18 10:48:35;;;;;;;6.22;3.03;;;;;;;;;;5037306;28;20578;-60
2022/07/18 10:51:11;;;;;;;6.07;3.03;;;;;;;;;;5026827;28;20117;-59
2022/07/18 10:53:59;;;;;;;5.13;2.90;;;;;;;;;;5025207;28;20033;-59
2022/07/18 10:56:28;;;;;;;7.28;2.97;;;;;;;;;;5032755;28;20511;-60
2022/07/18 10:58:57;;;;;;;5.28;2.97;;;;;;;;;;5030991;28;20029;-60
2022/07/18 11:01:24;;;;;;;5.63;2.97;;;;;;;;;;5030440;28;20107;-60
2022/07/18 11:03:50;;;;;;;6.47;2.83;;;;;;;;;;5028988;28;20037;-59
2022/07/18 11:06:16;;;;;;;5.93;2.92;;;;;;;;;;5029410;28;20547;-60
2022/07/18 11:08:42;;;;;;;6.15;2.97;;;;;;;;;;5032216;28;20608;-60
2022/07/18 11:11:10;;;;;;;4.50;2.70;;;;;;;;;;5024830;28;20526;-60
2022/07/18 11:13:38;;;;;;;6.60;2.92;;;;;;;;;;5028954;28;20100;-60
2022/07/18 11:16:14;;;;;;;5.05;2.40;;;;;;;;;;5034635;28;20025;-60
2022/07/18 11:18:40;;;;;;;10.32;2.88;;;;;;;;;;5028588;28;20029;-59
2022/07/18 11:21:19;;;;;;;4.90;2.80;;;;;;;;;;5027919;28;20030;-60
2022/07/18 11:23:47;;;;;;;5.38;2.25;;;;;;;;;;5024726;28;20124;-60
2022/07/18 11:26:17;;;;;;;4.07;2.70;;;;;;;;;;5031577;28;20030;-59
2022/07/18 11:28:43;;;;;;;4.00;2.67;;;;;;;;;;5031742;28;20030;-61
2022/07/18 11:31:10;;;;;;;5.13;2.67;;;;;;;;;;5028499;28;20100;-60
2022/07/18 11:33:44;;;;;;;5.15;2.90;;;;;;;;;;5030456;28;20025;-60
2022/07/18 11:36:14;;;;;;;6.72;2.28;;;;;;;;;;5024482;28;20034;-61
2022/07/18 11:38:47;;;;;;;4.32;2.60;;;;;;;;;;5028983;28;20113;-61
2022/07/18 11:41:13;;;;;;;7.73;2.60;;;;;;;;;;5028680;28;20029;-60
2022/07/18 11:43:39;;;;;;;6.93;2.65;;;;;;;;;;5030863;28;20480;-61
2022/07/18 11:46:09;;;;;;;6.65;2.67;;;;;;;;;;5031259;28;20030;-60
2022/07/18 11:48:36;;;;;;;4.07;2.45;;;;;;;;;;5029117;28;20029;-59
2022/07/18 11:51:02;;;;;;;5.82;2.55;;;;;;;;;;5028621;28;20026;-60
2022/07/18 11:53:28;;;;;;;4.38;2.90;;;;;;;;;;5019590;28;20034;-60
2022/07/18 11:55:55;;;;;;;8.07;3.28;;;;;;;;;;5029964;28;20091;-60
2022/07/18 11:58:22;;;;;;;4.60;2.63;;;;;;;;;;5029530;28;20503;-60
2022/07/18 12:00:48;;;;;;;6.00;2.85;;;;;;;;;;5030315;28;20021;-60
2022/07/18 12:03:16;;;;;;;4.45;2.33;;;;;;;;;;5031023;28;20029;-59
2022/07/18 12:05:48;;;;;;;6.35;2.22;;;;;;;;;;5030898;28;20497;-60
2022/07/18 12:08:29;;;;;;;5.30;2.22;;;;;;;;;;5030008;28;20072;-60
2022/07/18 12:11:15;;;;;;;4.90;2.88;;;;;;;;;;5027593;28;20100;-60
2022/07/18 12:13:46;;;;;;;4.85;2.30;;;;;;;;;;5039550;28;20030;-61
2022/07/18 12:16:44;;;;;;;4.03;2.40;;;;;;;;;;5021123;28;20112;-60
2022/07/18 12:19:12;;;;;;;4.78;2.83;;;;;;;;;;5010826;28;20034;-59
2022/07/18 12:21:39;;;;;;;4.10;2.25;;;;;;;;;;5028541;28;20155;-60
2022/07/18 12:24:18;;;;;;;4.78;2.58;;;;;;;;;;5031509;28;20033;-60
2022/07/18 12:26:44;;;;;;;7.00;2.45;;;;;;;;;;5030634;28;20025;-59
2022/07/18 12:29:10;;;;;;;3.70;2.63;;;;;;;;;;5030225;28;20033;-60
2022/07/18 12:31:41;;;;;;;4.10;2.40;;;;;;;;;;5028514;28;20104;-60
2022/07/18 12:34:08;;;;;;;3.45;2.20;;;;;;;;;;5021992;28;20428;-58
2022/07/18 12:36:34;;;;;;;5.70;3.08;;;;;;;;;;5028687;28;20034;-59
2022/07/18 12:39:01;;;;;;;5.32;2.50;;;;;;;;;;5026610;28;20076;-60
2022/07/18 12:41:30;;;;;;;4.53;2.85;;;;;;;;;;5026776;28;20374;-60
2022/07/18 12:43:56;;;;;;;5.85;2.90;;;;;;;;;;5029603;28;20595;-60
2022/07/18 12:46:22;;;;;;;4.10;2.40;;;;;;;;;;5033802;28;20032;-60
2022/07/18 12:48:48;;;;;;;5.18;2.40;;;;;;;;;;5033966;28;20033;-60
2022/07/18 12:51:14;;;;;;;3.55;2.25;;;;;;;;;;5023650;28;20036;-60
2022/07/18 12:53:41;;;;;;;4.30;2.50;;;;;;;;;;5026808;28;20418;-60
2022/07/18 12:56:08;;;;;;;6.03;2.97;;;;;;;;;;5025441;28;20523;-60
2022/07/18 12:58:34;;;;;;;3.90;2.15;;;;;;;;;;5027572;28;20036;-59
2022/07/18 13:01:01;;;;;;;6.57;2.60;;;;;;;;;;5025515;28;20400;-60
2022/07/18 13:03:27;;;;;;;5.15;2.30;;;;;;;;;;5031197;28;20125;-60
2022/07/18 13:05:53;;;;;;;4.78;2.40;;;;;;;;;;5026254;28;20083;-60
2022/07/18 13:08:19;;;;;;;4.80;2.30;;;;;;;;;;5028064;28;20392;-60
2022/07/18 13:10:45;;;;;;;4.85;2.50;;;;;;;;;;5025692;28;20485;-60
2022/07/18 13:13:11;;;;;;;6.43;2.60;;;;;;;;;;5027694;28;20017;-58
2022/07/18 13:15:37;;;;;;;6.35;2.90;;;;;;;;;;5029406;28;20033;-60
2022/07/18 13:18:04;;;;;;;4.88;2.50;;;;;;;;;;5030053;28;20036;-59
2022/07/18 13:20:33;;;;;;;8.02;2.70;;;;;;;;;;5028714;28;20120;-59
2022/07/18 13:23:01;;;;;;;5.80;2.78;;;;;;;;;;5023980;28;20139;-60
2022/07/18 13:25:27;;;;;;;6.40;2.95;;;;;;;;;;5030276;28;20467;-60
2022/07/18 13:27:53;;;;;;;5.80;2.97;;;;;;;;;;5038670;28;20025;-60
2022/07/18 13:30:19;;;;;;;6.47;2.50;;;;;;;;;;5029236;28;20100;-60
2022/07/18 13:32:45;;;;;;;4.53;2.40;;;;;;;;;;5028784;28;20680;-60
2022/07/18 13:35:11;;;;;;;4.78;2.28;;;;;;;;;;5028391;28;20678;-59
2022/07/18 13:37:37;;;;;;;3.40;2.15;;;;;;;;;;5035905;28;20281;-60
2022/07/18 13:40:05;;;;;;;5.57;2.38;;;;;;;;;;5021917;28;20033;-60
2022/07/18 13:42:31;;;;;;;5.68;2.28;;;;;;;;;;5021852;28;20025;-60
2022/07/18 13:44:58;;;;;;;4.72;2.45;;;;;;;;;;5028048;28;20037;-60
2022/07/18 13:47:24;;;;;;;5.45;1.98;;;;;;;;;;5027977;28;20026;-60
2022/07/18 13:49:55;;;;;;;4.78;2.13;;;;;;;;;;5031627;28;20028;-60
2022/07/18 13:52:21;;;;;;;4.90;2.40;;;;;;;;;;5021789;28;20030;-59
2022/07/18 13:54:49;;;;;;;4.78;2.72;;;;;;;;;;5023569;28;20111;-60
2022/07/18 13:57:15;;;;;;;4.03;2.20;;;;;;;;;;5026497;28;20397;-59
2022/07/18 13:59:41;;;;;;;4.43;2.25;;;;;;;;;;5024438;28;20080;-59
2022/07/18 14:02:06;;;;;;;4.32;2.22;;;;;;;;;;5031045;28;20111;-60
2022/07/18 14:04:32;;;;;;;8.02;2.17;;;;;;;;;;5029623;28;20390;-60
2022/07/18 14:06:58;;;;;;;7.68;2.72;;;;;;;;;;5018608;28;20104;-60
2022/07/18 14:09:24;;;;;;;3.97;2.78;;;;;;;;;;5025862;28;20029;-59
2022/07/18 14:11:51;;;;;;;15.48;3.70;;;;;;;;;;5018631;28;20029;-56
2022/07/18 14:14:16;;;;;;;6.82;2.83;;;;;;;;;;5026154;28;20533;-60
2022/07/18 14:16:42;;;;;;;3.95;2.58;;;;;;;;;;5032963;28;20112;-58
2022/07/18 14:19:08;;;;;;;4.75;2.25;;;;;;;;;;5030106;28;20083;-60
2022/07/18 14:21:34;;;;;;;5.00;2.03;;;;;;;;;;5022413;28;20497;-60
2022/07/18 14:24:00;;;;;;;2.85;1.58;;;;;;;;;;5027937;28;20041;-59
2022/07/18 14:26:26;;;;;;;5.63;2.33;;;;;;;;;;5042881;28;20030;-58
2022/07/18 14:28:53;;;;;;;4.35;2.55;;;;;;;;;;5026090;28;20034;-60
2022/07/18 14:31:19;;;;;;;4.57;2.55;;;;;;;;;;5031966;28;20026;-59
2022/07/18 14:33:45;;;;;;;5.68;2.38;;;;;;;;;;5032550;28;20021;-59
2022/07/18 14:36:11;;;;;;;5.05;2.47;;;;;;;;;;5036876;28;20061;-59
2022/07/18 14:38:37;;;;;;;6.30;2.42;;;;;;;;;;5033027;28;20079;-60
2022/07/18 14:41:03;;;;;;;19.13;3.50;;;;;;;;;;5030556;28;20472;-60
2022/07/18 14:43:29;;;;;;;6.13;2.58;;;;;;;;;;5028746;28;21143;-60
2022/07/18 14:45:56;;;;;;;4.80;2.67;;;;;;;;;;5028372;28;20116;-60